createdAt,value
2016-06-03T00:00:13.810Z,99.68
2016-06-03T00:01:13.781Z,99.99
2016-06-03T00:02:13.768Z,99.99
2016-06-03T00:03:13.755Z,99.91
2016-06-03T00:04:13.726Z,99.99
2016-06-03T00:05:13.713Z,99.96
2016-06-03T00:06:13.700Z,99.99
2016-06-03T00:07:13.672Z,99.99
2016-06-03T00:08:13.659Z,99.99
2016-06-03T00:09:13.645Z,99.99
2016-06-03T00:10:13.617Z,99.99
2016-06-03T00:11:13.604Z,99.29
2016-06-03T00:12:13.592Z,99.87
2016-06-03T00:13:13.563Z,99.39
2016-06-03T00:14:13.550Z,99.87
2016-06-03T00:15:13.537Z,99.99
2016-06-03T00:16:13.508Z,99.58
2016-06-03T00:17:13.496Z,99.99
2016-06-03T00:18:13.467Z,99.99
2016-06-03T00:19:13.455Z,99.77
2016-06-03T00:20:13.442Z,99.99
2016-06-03T00:21:13.427Z,99.68
2016-06-03T00:22:13.400Z,99.99
2016-06-03T00:23:13.387Z,99.39
2016-06-03T00:24:13.358Z,99.58
2016-06-03T00:25:13.345Z,99.99
2016-06-03T00:26:13.332Z,99.87
2016-06-03T00:27:13.304Z,99.99
2016-06-03T00:28:13.384Z,99.96
2016-06-03T00:29:13.279Z,99.99
2016-06-03T00:30:13.249Z,99.58
2016-06-03T00:31:13.236Z,99.58
2016-06-03T00:32:13.208Z,99.99
2016-06-03T00:33:13.195Z,99.99
2016-06-03T00:34:13.182Z,99.99
2016-06-03T00:35:13.153Z,99.68
2016-06-03T00:36:13.140Z,99.77
2016-06-03T00:37:13.128Z,99.99
2016-06-03T00:38:13.098Z,99.68
2016-06-03T00:39:13.086Z,99.99
2016-06-03T00:40:13.073Z,99.99
2016-06-03T00:41:13.045Z,99.99
2016-06-03T00:42:13.032Z,99.68
2016-06-03T00:43:13.019Z,99.58
2016-06-03T00:44:12.989Z,99.68
2016-06-03T00:45:12.977Z,99.99
2016-06-03T00:46:12.949Z,99.29
2016-06-03T00:47:12.935Z,99.96
2016-06-03T00:48:12.923Z,99.39
2016-06-03T00:49:12.894Z,99.99
2016-06-03T00:50:12.881Z,99.99
2016-06-03T00:51:12.868Z,99.99
2016-06-03T00:52:12.840Z,99.58
2016-06-03T00:53:12.827Z,99.68
2016-06-03T00:54:12.813Z,99.99
2016-06-03T00:55:12.785Z,99.39
2016-06-03T00:56:12.772Z,99.96
2016-06-03T00:57:12.744Z,99.49
2016-06-03T00:58:12.732Z,99.99
2016-06-03T00:59:12.718Z,99.99
2016-06-03T01:00:12.689Z,99.99
2016-06-03T01:01:12.676Z,99.99
2016-06-03T01:02:12.663Z,99.99
2016-06-03T01:03:12.635Z,99.99
2016-06-03T01:04:12.622Z,99.99
2016-06-03T01:05:12.609Z,99.99
2016-06-03T01:06:12.612Z,99.99
2016-06-03T01:07:12.568Z,99.49
2016-06-03T01:08:12.540Z,99.68
2016-06-03T01:09:12.526Z,99.99
2016-06-03T01:10:12.514Z,99.96
2016-06-03T01:11:12.484Z,99.68
2016-06-03T01:12:12.472Z,99.58
2016-06-03T01:13:12.458Z,99.77
2016-06-03T01:14:12.430Z,99.96
2016-06-03T01:15:12.417Z,99.99
2016-06-03T01:16:12.405Z,99.99
2016-06-03T01:17:12.375Z,99.77
2016-06-03T01:18:12.363Z,99.99
2016-06-03T01:19:12.350Z,99.99
2016-06-03T01:20:12.321Z,99.99
2016-06-03T01:21:12.308Z,99.99
2016-06-03T01:22:12.296Z,99.99
2016-06-03T01:23:12.267Z,99.99
2016-06-03T01:24:12.254Z,99.87
2016-06-03T01:25:12.772Z,99.96
2016-06-03T01:26:12.213Z,99.96
2016-06-03T01:27:12.199Z,99.96
2016-06-03T01:28:12.171Z,99.99
2016-06-03T01:29:12.157Z,99.99
2016-06-03T01:30:12.145Z,99.87
2016-06-03T01:31:12.116Z,99.99
2016-06-03T01:32:12.104Z,99.99
2016-06-03T01:33:12.090Z,99.77
2016-06-03T01:34:12.062Z,99.99
2016-06-03T01:35:12.065Z,99.99
2016-06-03T01:36:12.036Z,99.99
2016-06-03T01:37:12.023Z,99.58
2016-06-03T01:38:11.995Z,99.99
2016-06-03T01:39:11.981Z,99.87
2016-06-03T01:40:11.954Z,99.99
2016-06-03T01:41:11.940Z,99.68
2016-06-03T01:42:11.911Z,99.87
2016-06-03T01:43:11.898Z,99.99
2016-06-03T01:44:11.886Z,99.68
2016-06-03T01:45:11.858Z,99.68
2016-06-03T01:46:11.844Z,99.58
2016-06-03T01:47:11.831Z,99.58
2016-06-03T01:48:11.803Z,99.99
2016-06-03T01:49:11.789Z,99.99
2016-06-03T01:50:11.777Z,99.99
2016-06-03T01:51:11.749Z,99.99
2016-06-03T01:52:11.736Z,99.96
2016-06-03T01:53:11.723Z,99.49
2016-06-03T01:54:11.693Z,99.99
2016-06-03T01:55:11.680Z,99.99
2016-06-03T01:56:11.668Z,99.87
2016-06-03T01:57:11.640Z,99.99
2016-06-03T01:58:11.626Z,99.99
2016-06-03T01:59:11.598Z,99.96
2016-06-03T02:00:11.585Z,99.96
2016-06-03T02:01:11.572Z,99.99
2016-06-03T02:02:11.543Z,99.96
2016-06-03T02:03:11.532Z,99.68
2016-06-03T02:04:11.518Z,99.39
2016-06-03T02:05:11.489Z,99.39
2016-06-03T02:06:11.476Z,99.99
2016-06-03T02:07:11.463Z,99.68
2016-06-03T02:08:11.434Z,99.99
2016-06-03T02:09:11.423Z,99.49
2016-06-03T02:10:11.409Z,99.2
2016-06-03T02:11:11.381Z,99.99
2016-06-03T02:12:11.367Z,99.68
2016-06-03T02:13:11.354Z,99.87
2016-06-03T02:14:11.326Z,99.99
2016-06-03T02:15:11.314Z,99.99
2016-06-03T02:16:11.284Z,99.99
2016-06-03T02:17:11.272Z,99.99
2016-06-03T02:18:11.258Z,99.96
2016-06-03T02:19:11.230Z,99.99
2016-06-03T02:20:11.217Z,99.99
2016-06-03T02:21:11.204Z,99.96
2016-06-03T02:22:11.175Z,99.87
2016-06-03T02:23:11.163Z,99.77
2016-06-03T02:24:11.149Z,99.39
2016-06-03T02:25:11.136Z,99.99
2016-06-03T02:26:11.108Z,99.99
2016-06-03T02:27:11.095Z,99.39
2016-06-03T02:28:11.066Z,99.68
2016-06-03T02:29:11.054Z,99.99
2016-06-03T02:30:11.041Z,99.77
2016-06-03T02:31:11.013Z,99.99
2016-06-03T02:32:10.999Z,99.99
2016-06-03T02:33:10.987Z,99.39
2016-06-03T02:34:10.958Z,99.99
2016-06-03T02:35:10.946Z,99.96
2016-06-03T02:36:10.932Z,99.96
2016-06-03T02:37:10.904Z,99.58
2016-06-03T02:38:10.890Z,99.39
2016-06-03T02:39:10.862Z,99.99
2016-06-03T02:40:10.849Z,99.39
2016-06-03T02:41:10.836Z,99.99
2016-06-03T02:42:10.823Z,99.99
2016-06-03T02:43:10.795Z,99.49
2016-06-03T02:44:10.781Z,99.99
2016-06-03T02:45:10.753Z,99.99
2016-06-03T02:46:10.740Z,99.99
2016-06-03T02:47:10.728Z,99.99
2016-06-03T02:48:10.714Z,99.96
2016-06-03T02:49:10.685Z,99.87
2016-06-03T02:50:10.672Z,99.99
2016-06-03T02:51:10.644Z,99.96
2016-06-03T02:52:10.631Z,99.99
2016-06-03T02:53:10.618Z,99.96
2016-06-03T02:54:10.589Z,99.49
2016-06-03T02:55:10.842Z,99.49
2016-06-03T02:56:10.564Z,99.82
2016-06-03T02:57:10.535Z,99.49
2016-06-03T02:58:10.522Z,99.58
2016-06-03T02:59:10.510Z,99.29
2016-06-03T03:00:10.481Z,99.49
2016-06-03T03:01:10.468Z,99.77
2016-06-03T03:02:10.455Z,99.99
2016-06-03T03:03:10.426Z,99.68
2016-06-03T03:04:10.413Z,99.99
2016-06-03T03:05:10.401Z,99.49
2016-06-03T03:06:10.371Z,99.99
2016-06-03T03:07:10.360Z,99.99
2016-06-03T03:08:10.346Z,99.99
2016-06-03T03:09:10.317Z,99.87
2016-06-03T03:10:11.086Z,99.99
2016-06-03T03:11:10.292Z,99.99
2016-06-03T03:12:10.263Z,99.96
2016-06-03T03:13:10.251Z,99.99
2016-06-03T03:14:10.237Z,99.99
2016-06-03T03:15:10.209Z,99.87
2016-06-03T03:16:10.195Z,99.96
2016-06-03T03:17:10.183Z,99.99
2016-06-03T03:18:10.154Z,99.99
2016-06-03T03:19:10.141Z,99.77
2016-06-03T03:20:10.128Z,99.58
2016-06-03T03:21:10.099Z,99.2
2016-06-03T03:22:10.087Z,99.39
2016-06-03T03:23:10.059Z,99.49
2016-06-03T03:24:10.045Z,99.49
2016-06-03T03:25:10.767Z,99.77
2016-06-03T03:26:10.005Z,99.87
2016-06-03T03:27:09.991Z,99.96
2016-06-03T03:28:09.977Z,99.39
2016-06-03T03:29:09.949Z,99.99
2016-06-03T03:30:09.936Z,99.49
2016-06-03T03:31:09.923Z,99.39
2016-06-03T03:32:09.896Z,99.39
2016-06-03T03:33:09.882Z,99.68
2016-06-03T03:34:09.869Z,99.58
2016-06-03T03:35:09.840Z,99.87
2016-06-03T03:36:09.828Z,99.49
2016-06-03T03:37:09.814Z,99.68
2016-06-03T03:38:09.801Z,99.96
2016-06-03T03:39:09.773Z,99.68
2016-06-03T03:40:09.760Z,99.68
2016-06-03T03:41:09.732Z,99.99
2016-06-03T03:42:09.718Z,99.99
2016-06-03T03:43:09.706Z,99.99
2016-06-03T03:44:09.677Z,99.99
2016-06-03T03:45:09.665Z,99.99
2016-06-03T03:46:09.651Z,99.87
2016-06-03T03:47:09.623Z,99.87
2016-06-03T03:48:09.609Z,99.99
2016-06-03T03:49:09.597Z,99.99
2016-06-03T03:50:09.584Z,99.87
2016-06-03T03:51:09.556Z,99.68
2016-06-03T03:52:09.543Z,99.68
2016-06-03T03:53:09.514Z,99.87
2016-06-03T03:54:09.501Z,99.99
2016-06-03T03:55:09.488Z,99.68
2016-06-03T03:56:09.460Z,99.87
2016-06-03T03:57:09.446Z,99.87
2016-06-03T03:58:09.434Z,99.77
2016-06-03T03:59:09.405Z,99.99
2016-06-03T04:00:09.392Z,99.2
2016-06-03T04:01:09.364Z,99.87
2016-06-03T04:02:09.352Z,99.99
2016-06-03T04:03:09.338Z,99.68
2016-06-03T04:04:09.309Z,99.99
2016-06-03T04:05:09.296Z,99.49
2016-06-03T04:06:09.283Z,99.99
2016-06-03T04:07:09.270Z,99.99
2016-06-03T04:08:09.243Z,99.99
2016-06-03T04:09:09.229Z,99.99
2016-06-03T04:10:09.356Z,99.99
2016-06-03T04:11:09.187Z,99.99
2016-06-03T04:12:09.174Z,99.39
2016-06-03T04:13:09.162Z,99.99
2016-06-03T04:14:09.134Z,99.99
2016-06-03T04:15:09.120Z,99.87
2016-06-03T04:16:09.091Z,99.99
2016-06-03T04:17:09.078Z,99.99
2016-06-03T04:18:09.065Z,99.99
2016-06-03T04:19:09.037Z,99.87
2016-06-03T04:20:09.025Z,99.99
2016-06-03T04:21:09.011Z,99.96
2016-06-03T04:22:08.983Z,99.99
2016-06-03T04:23:08.970Z,99.77
2016-06-03T04:24:08.957Z,99.99
2016-06-03T04:25:08.944Z,99.99
2016-06-03T04:26:08.916Z,99.99
2016-06-03T04:27:08.902Z,99.96
2016-06-03T04:28:08.874Z,99.58
2016-06-03T04:29:08.861Z,99.68
2016-06-03T04:30:08.848Z,99.96
2016-06-03T04:31:08.819Z,99.39
2016-06-03T04:32:08.807Z,99.87
2016-06-03T04:33:08.794Z,99.99
2016-06-03T04:34:08.766Z,99.99
2016-06-03T04:35:08.752Z,99.87
2016-06-03T04:36:08.739Z,99.99
2016-06-03T04:37:08.726Z,99.99
2016-06-03T04:38:08.698Z,99.58
2016-06-03T04:39:08.684Z,99.68
2016-06-03T04:40:08.672Z,99.39
2016-06-03T04:41:08.643Z,99.96
2016-06-03T04:42:08.630Z,99.99
2016-06-03T04:43:08.617Z,99.99
2016-06-03T04:44:08.589Z,99.99
2016-06-03T04:45:08.576Z,99.44
2016-06-03T04:46:08.562Z,99.99
2016-06-03T04:47:08.535Z,99.99
2016-06-03T04:48:08.521Z,99.99
2016-06-03T04:49:08.508Z,99.54
2016-06-03T04:50:08.480Z,99.73
2016-06-03T04:51:08.467Z,99.99
2016-06-03T04:52:08.454Z,99.25
2016-06-03T04:53:08.441Z,99.54
2016-06-03T04:54:08.412Z,99.44
2016-06-03T04:55:08.572Z,99.54
2016-06-03T04:56:08.387Z,99.54
2016-06-03T04:57:08.358Z,99.15
2016-06-03T04:58:08.345Z,99.44
2016-06-03T04:59:08.333Z,99.58
2016-06-03T05:00:08.319Z,99.68
2016-06-03T05:01:08.290Z,99.49
2016-06-03T05:02:08.278Z,99.4
2016-06-03T05:03:08.265Z,99.49
2016-06-03T05:04:08.252Z,99.01
2016-06-03T05:05:08.223Z,99.58
2016-06-03T05:06:08.210Z,99.68
2016-06-03T05:07:08.182Z,99.49
2016-06-03T05:08:08.169Z,99.78
2016-06-03T05:09:08.156Z,99.01
2016-06-03T05:10:08.143Z,99.4
2016-06-03T05:11:08.115Z,99.4
2016-06-03T05:12:08.102Z,99.3
2016-06-03T05:13:08.088Z,99.3
2016-06-03T05:14:08.060Z,99.49
2016-06-03T05:15:08.048Z,99.49
2016-06-03T05:16:08.034Z,99.01
2016-06-03T05:17:08.020Z,99.4
2016-06-03T05:18:07.992Z,98.72
2016-06-03T05:19:07.979Z,98.72
2016-06-03T05:20:07.967Z,99.01
2016-06-03T05:21:07.953Z,99.1
2016-06-03T05:22:07.925Z,98.91
2016-06-03T05:23:07.912Z,98.91
2016-06-03T05:24:07.900Z,98.91
2016-06-03T05:25:07.870Z,98.72
2016-06-03T05:26:07.858Z,98.82
2016-06-03T05:27:07.861Z,99.1
2016-06-03T05:28:07.833Z,99.01
2016-06-03T05:29:07.803Z,99.1
2016-06-03T05:30:07.791Z,99.1
2016-06-03T05:31:07.778Z,98.63
2016-06-03T05:32:07.765Z,98.72
2016-06-03T05:33:07.735Z,98.72
2016-06-03T05:34:07.723Z,98.63
2016-06-03T05:35:07.710Z,98.43
2016-06-03T05:36:07.697Z,98.63
2016-06-03T05:37:07.668Z,98.63
2016-06-03T05:38:07.655Z,98.43
2016-06-03T05:39:07.643Z,98.63
2016-06-03T05:40:07.630Z,98.53
2016-06-03T05:41:07.695Z,98.53
2016-06-03T05:42:07.604Z,98.53
2016-06-03T05:43:07.576Z,98.53
2016-06-03T05:44:07.547Z,98.53
2016-06-03T05:45:07.565Z,98.53
2016-06-03T05:46:07.537Z,98.24
2016-06-03T05:47:07.524Z,98.53
2016-06-03T05:48:07.480Z,97.86
2016-06-03T05:49:07.467Z,97.86
2016-06-03T05:50:07.454Z,98.43
2016-06-03T05:51:07.441Z,98.63
2016-06-03T05:52:07.412Z,98.43
2016-06-03T05:53:07.399Z,98.72
2016-06-03T05:54:07.386Z,98.24
2016-06-03T05:55:07.358Z,98.05
2016-06-03T05:56:07.344Z,98.34
2016-06-03T05:57:07.331Z,97.86
2016-06-03T05:58:07.319Z,98.24
2016-06-03T05:59:07.291Z,98.53
2016-06-03T06:00:07.324Z,98.14
2016-06-03T06:01:07.264Z,98.53
2016-06-03T06:02:07.252Z,98.72
2016-06-03T06:03:07.223Z,98.63
2016-06-03T06:04:07.210Z,98.72
2016-06-03T06:05:07.197Z,98.72
2016-06-03T06:06:07.185Z,98.43
2016-06-03T06:07:07.156Z,99.01
2016-06-03T06:08:07.143Z,99.1
2016-06-03T06:09:07.130Z,98.82
2016-06-03T06:10:07.101Z,98.91
2016-06-03T06:11:07.089Z,98.72
2016-06-03T06:12:07.075Z,99.01
2016-06-03T06:13:07.062Z,98.72
2016-06-03T06:14:07.034Z,99.49
2016-06-03T06:15:07.021Z,99.54
2016-06-03T06:16:07.007Z,99.3
2016-06-03T06:17:06.995Z,99.2
2016-06-03T06:18:06.967Z,99.35
2016-06-03T06:19:06.954Z,98.77
2016-06-03T06:20:06.940Z,98.96
2016-06-03T06:21:06.928Z,99.06
2016-06-03T06:22:06.899Z,98.96
2016-06-03T06:23:06.887Z,99.06
2016-06-03T06:24:06.873Z,99.06
2016-06-03T06:25:06.861Z,98.77
2016-06-03T06:26:06.848Z,98.77
2016-06-03T06:27:06.820Z,99.06
2016-06-03T06:28:06.805Z,98.96
2016-06-03T06:29:06.792Z,99.01
2016-06-03T06:30:06.780Z,98.91
2016-06-03T06:31:06.752Z,99.21
2016-06-03T06:32:06.738Z,99.4
2016-06-03T06:33:06.725Z,99.11
2016-06-03T06:34:06.713Z,98.82
2016-06-03T06:35:06.700Z,99.01
2016-06-03T06:36:06.686Z,98.82
2016-06-03T06:37:06.674Z,98.77
2016-06-03T06:38:06.646Z,98.87
2016-06-03T06:39:06.632Z,98.34
2016-06-03T06:40:06.620Z,98.05
2016-06-03T06:41:06.591Z,97.57
2016-06-03T06:42:06.577Z,97.86
2016-06-03T06:43:06.565Z,97.96
2016-06-03T06:44:06.552Z,98.05
2016-06-03T06:45:06.539Z,97.38
2016-06-03T06:46:06.526Z,97.28
2016-06-03T06:47:06.522Z,97.38
2016-06-03T06:48:06.536Z,97.09
2016-06-03T06:49:06.550Z,97.47
2016-06-03T06:50:06.580Z,97.38
2016-06-03T06:51:06.564Z,98.05
2016-06-03T06:52:06.594Z,97.67
2016-06-03T06:53:06.559Z,98.05
2016-06-03T06:54:06.556Z,98.05
2016-06-03T06:55:06.554Z,97.76
2016-06-03T06:56:06.551Z,97.76
2016-06-03T06:57:06.526Z,98.05
2016-06-03T06:58:06.532Z,98.05
2016-06-03T06:59:06.507Z,97.76
2016-06-03T07:00:06.498Z,97.57
2016-06-03T07:01:06.473Z,97.28
2016-06-03T07:02:06.461Z,97.38
2016-06-03T07:03:06.450Z,97.67
2016-06-03T07:04:06.437Z,98.05
2016-06-03T07:05:06.426Z,98.05
2016-06-03T07:06:06.414Z,97.67
2016-06-03T07:07:06.386Z,98.53
2016-06-03T07:08:06.374Z,98.53
2016-06-03T07:09:06.362Z,98.58
2016-06-03T07:10:06.350Z,98.58
2016-06-03T07:11:06.338Z,98.58
2016-06-03T07:12:06.309Z,98.39
2016-06-03T07:13:06.296Z,98.87
2016-06-03T07:14:06.284Z,98.87
2016-06-03T07:15:06.270Z,98.68
2016-06-03T07:16:06.257Z,98.96
2016-06-03T07:17:06.244Z,98
2016-06-03T07:18:06.216Z,98
2016-06-03T07:19:06.203Z,98.05
2016-06-03T07:20:06.189Z,98
2016-06-03T07:21:06.177Z,98
2016-06-03T07:22:06.164Z,97.96
2016-06-03T07:23:06.151Z,97.86
2016-06-03T07:24:06.138Z,97.86
2016-06-03T07:25:06.126Z,97.57
2016-06-03T07:26:06.113Z,97.38
2016-06-03T07:27:06.084Z,97.67
2016-06-03T07:28:06.071Z,97.57
2016-06-03T07:29:06.042Z,97.28
2016-06-03T07:30:06.045Z,97.28
2016-06-03T07:31:06.033Z,96.7
2016-06-03T07:32:06.004Z,96.8
2016-06-03T07:33:05.991Z,96.51
2016-06-03T07:34:05.977Z,96.42
2016-06-03T07:35:05.965Z,96.51
2016-06-03T07:36:05.936Z,96.8
2016-06-03T07:37:05.924Z,96.7
2016-06-03T07:38:05.910Z,96.89
2016-06-03T07:39:05.898Z,96.51
2016-06-03T07:40:05.885Z,96.12
2016-06-03T07:41:05.872Z,96.03
2016-06-03T07:42:05.859Z,96.7
2016-06-03T07:43:05.829Z,96.7
2016-06-03T07:44:05.817Z,96.89
2016-06-03T07:45:05.804Z,96.61
2016-06-03T07:46:05.792Z,96.8
2016-06-03T07:47:05.778Z,96.42
2016-06-03T07:48:05.765Z,95.94
2016-06-03T07:49:05.737Z,96.22
2016-06-03T07:50:05.723Z,97.09
2016-06-03T07:51:05.711Z,96.89
2016-06-03T07:52:05.698Z,96.51
2016-06-03T07:53:05.685Z,96.42
2016-06-03T07:54:05.672Z,96.32
2016-06-03T07:55:05.925Z,96.7
2016-06-03T07:56:05.631Z,96.7
2016-06-03T07:57:05.617Z,96.89
2016-06-03T07:58:05.605Z,96.51
2016-06-03T07:59:05.591Z,96.8
2016-06-03T08:00:05.579Z,97.09
2016-06-03T08:01:05.566Z,96.89
2016-06-03T08:02:05.552Z,96.99
2016-06-03T08:03:05.525Z,96.32
2016-06-03T08:04:05.511Z,96.32
2016-06-03T08:05:05.499Z,96.61
2016-06-03T08:06:05.485Z,95.55
2016-06-03T08:07:05.473Z,95.55
2016-06-03T08:08:05.460Z,95.89
2016-06-03T08:09:05.446Z,96.22
2016-06-03T08:10:05.418Z,96.61
2016-06-03T08:11:05.421Z,96.51
2016-06-03T08:12:05.393Z,96.22
2016-06-03T08:13:05.379Z,96.89
2016-06-03T08:14:05.367Z,96.32
2016-06-03T08:15:05.354Z,95.84
2016-06-03T08:16:05.340Z,96.8
2016-06-03T08:17:05.312Z,97.28
2016-06-03T08:18:05.299Z,96.32
2016-06-03T08:19:05.286Z,96.32
2016-06-03T08:20:05.273Z,96.12
2016-06-03T08:21:05.261Z,96.51
2016-06-03T08:22:05.247Z,96.22
2016-06-03T08:23:05.219Z,96.8
2016-06-03T08:24:05.206Z,97.19
2016-06-03T08:25:05.193Z,96.12
2016-06-03T08:26:05.180Z,96.32
2016-06-03T08:27:05.167Z,95.65
2016-06-03T08:28:05.155Z,96.51
2016-06-03T08:29:05.141Z,96.42
2016-06-03T08:30:05.113Z,96.32
2016-06-03T08:31:05.100Z,96.51
2016-06-03T08:32:05.086Z,96.51
2016-06-03T08:33:05.074Z,96.22
2016-06-03T08:34:05.060Z,95.84
2016-06-03T08:35:05.049Z,95.84
2016-06-03T08:36:05.035Z,95.84
2016-06-03T08:37:05.022Z,95.74
2016-06-03T08:38:04.994Z,95.74
2016-06-03T08:39:04.980Z,95.55
2016-06-03T08:40:05.421Z,95.55
2016-06-03T08:41:04.954Z,95.74
2016-06-03T08:42:04.942Z,95.65
2016-06-03T08:43:04.929Z,95.69
2016-06-03T08:44:04.915Z,96.03
2016-06-03T08:45:04.904Z,95.89
2016-06-03T08:46:04.874Z,95.5
2016-06-03T08:47:04.861Z,95.89
2016-06-03T08:48:04.896Z,95.79
2016-06-03T08:49:04.836Z,95.98
2016-06-03T08:50:04.823Z,96.27
2016-06-03T08:51:04.810Z,96.08
2016-06-03T08:52:04.797Z,96.37
2016-06-03T08:53:04.783Z,96.17
2016-06-03T08:54:04.771Z,96.37
2016-06-03T08:55:04.758Z,96.46
2016-06-03T08:56:04.730Z,96.37
2016-06-03T08:57:04.717Z,96.51
2016-06-03T08:58:04.703Z,96.51
2016-06-03T08:59:04.691Z,96.42
2016-06-03T09:00:04.678Z,96.32
2016-06-03T09:01:04.664Z,96.51
2016-06-03T09:02:04.652Z,96.42
2016-06-03T09:03:04.639Z,96.08
2016-06-03T09:04:04.627Z,95.4
2016-06-03T09:05:04.614Z,95.21
2016-06-03T09:06:04.600Z,95.31
2016-06-03T09:07:04.587Z,95.21
2016-06-03T09:08:04.574Z,94.73
2016-06-03T09:09:04.561Z,94.82
2016-06-03T09:10:04.564Z,94.73
2016-06-03T09:11:04.535Z,94.34
2016-06-03T09:12:04.523Z,94.34
2016-06-03T09:13:04.494Z,94.06
2016-06-03T09:14:04.482Z,94.44
2016-06-03T09:15:04.468Z,94.34
2016-06-03T09:16:04.565Z,94.24
2016-06-03T09:17:04.443Z,94.44
2016-06-03T09:18:04.430Z,94.54
2016-06-03T09:19:04.417Z,94.63
2016-06-03T09:20:04.404Z,95.06
2016-06-03T09:21:04.390Z,95.06
2016-06-03T09:22:04.378Z,94.87
2016-06-03T09:23:04.365Z,94.96
2016-06-03T09:24:04.352Z,94.68
2016-06-03T09:25:04.354Z,94.39
2016-06-03T09:26:04.325Z,94.29
2016-06-03T09:27:04.314Z,93.81
2016-06-03T09:28:04.300Z,93.33
2016-06-03T09:29:04.286Z,94.2
2016-06-03T09:30:04.290Z,93.71
2016-06-03T09:31:04.259Z,93.33
2016-06-03T09:32:04.245Z,93.33
2016-06-03T09:33:04.232Z,93.13
2016-06-03T09:34:04.219Z,93.23
2016-06-03T09:35:04.208Z,93.71
2016-06-03T09:36:04.194Z,94
2016-06-03T09:37:04.213Z,93.71
2016-06-03T09:38:04.168Z,93.76
2016-06-03T09:39:04.155Z,93.95
2016-06-03T09:40:04.142Z,92.7
2016-06-03T09:41:04.129Z,93.08
2016-06-03T09:42:04.116Z,93.18
2016-06-03T09:43:04.104Z,94
2016-06-03T09:44:04.091Z,93.71
2016-06-03T09:45:04.078Z,93.8
2016-06-03T09:46:04.065Z,94
2016-06-03T09:47:04.051Z,94.1
2016-06-03T09:48:04.039Z,94.14
2016-06-03T09:49:04.040Z,92.89
2016-06-03T09:50:04.029Z,92.89
2016-06-03T09:51:04.015Z,92.25
2016-06-03T09:52:04.003Z,91.49
2016-06-03T09:53:03.990Z,91.83
2016-06-03T09:54:03.976Z,91.73
2016-06-03T09:55:03.979Z,91.53
2016-06-03T09:56:03.967Z,91.73
2016-06-03T09:57:03.953Z,91.63
2016-06-03T09:58:03.940Z,91.25
2016-06-03T09:59:03.927Z,90.67
2016-06-03T10:00:03.914Z,91.53
2016-06-03T10:01:03.918Z,91.53
2016-06-03T10:02:03.889Z,91.53
2016-06-03T10:03:03.876Z,91.25
2016-06-03T10:04:03.863Z,91.25
2016-06-03T10:05:03.850Z,91.63
2016-06-03T10:06:03.836Z,91.73
2016-06-03T10:07:03.840Z,91.35
2016-06-03T10:08:03.827Z,91.35
2016-06-03T10:09:03.813Z,91.53
2016-06-03T10:10:03.802Z,91.73
2016-06-03T10:11:03.788Z,91.83
2016-06-03T10:12:03.775Z,91.92
2016-06-03T10:13:03.763Z,90.19
2016-06-03T10:14:03.749Z,90.19
2016-06-03T10:15:03.736Z,90.57
2016-06-03T10:16:03.723Z,90.81
2016-06-03T10:17:03.726Z,91
2016-06-03T10:18:03.713Z,90.81
2016-06-03T10:19:03.701Z,90.23
2016-06-03T10:20:03.687Z,90.23
2016-06-03T10:21:03.674Z,90.13
2016-06-03T10:22:03.662Z,89.89
2016-06-03T10:23:03.664Z,89.98
2016-06-03T10:24:03.651Z,90.27
2016-06-03T10:25:03.778Z,90.41
2016-06-03T10:26:03.656Z,88.39
2016-06-03T10:27:03.629Z,88.57
2016-06-03T10:28:03.615Z,88.77
2016-06-03T10:29:03.603Z,89.25
2016-06-03T10:30:03.589Z,88.39
2016-06-03T10:31:03.592Z,87.51
2016-06-03T10:32:03.579Z,87.85
2016-06-03T10:33:03.566Z,87.47
2016-06-03T10:34:03.553Z,87.66
2016-06-03T10:35:03.539Z,88.63
2016-06-03T10:36:03.542Z,87.66
2016-06-03T10:37:03.530Z,87.76
2016-06-03T10:38:03.516Z,87.47
2016-06-03T10:39:03.505Z,88.15
2016-06-03T10:40:03.491Z,87.9
2016-06-03T10:41:03.478Z,87.61
2016-06-03T10:42:03.480Z,87.51
2016-06-03T10:43:03.468Z,87.51
2016-06-03T10:44:03.455Z,86.35
2016-06-03T10:45:03.441Z,86.83
2016-06-03T10:46:03.444Z,87.23
2016-06-03T10:47:03.432Z,87.27
2016-06-03T10:48:03.419Z,86.69
2016-06-03T10:49:03.406Z,86.49
2016-06-03T10:50:03.409Z,86.49
2016-06-03T10:51:03.396Z,86.49
2016-06-03T10:52:03.383Z,85.97
2016-06-03T10:53:03.370Z,86.25
2016-06-03T10:54:03.356Z,86.45
2016-06-03T10:55:03.360Z,86.65
2016-06-03T10:56:03.346Z,86.65
2016-06-03T10:57:03.334Z,87.51
2016-06-03T10:58:03.321Z,87.13
2016-06-03T10:59:03.308Z,87.32
2016-06-03T11:00:03.295Z,87.03
2016-06-03T11:01:03.297Z,87.9
2016-06-03T11:02:03.284Z,87.71
2016-06-03T11:03:03.272Z,87.32
2016-06-03T11:04:03.259Z,86.93
2016-06-03T11:05:03.245Z,86.88
2016-06-03T11:06:03.248Z,87.27
2016-06-03T11:07:03.235Z,87.55
2016-06-03T11:08:03.222Z,87.31
2016-06-03T11:09:03.210Z,87.21
2016-06-03T11:10:04.103Z,87.7
2016-06-03T11:11:04.074Z,87.89
2016-06-03T11:12:03.186Z,87.21
2016-06-03T11:13:03.174Z,87.21
2016-06-03T11:14:03.160Z,87.99
2016-06-03T11:15:03.163Z,87.6
2016-06-03T11:16:03.149Z,86.63
2016-06-03T11:17:03.152Z,86.54
2016-06-03T11:18:03.124Z,86.73
2016-06-03T11:19:03.127Z,86.34
2016-06-03T11:20:03.115Z,86.54
2016-06-03T11:21:03.117Z,86.15
2016-06-03T11:22:03.088Z,86
2016-06-03T11:23:03.091Z,85.76
2016-06-03T11:24:03.078Z,85.86
2016-06-03T11:25:03.487Z,86.58
2016-06-03T11:26:03.630Z,85.51
2016-06-03T11:27:03.055Z,85.86
2016-06-03T11:28:03.043Z,86.58
2016-06-03T11:29:03.076Z,85.47
2016-06-03T11:30:03.032Z,85.86
2016-06-03T11:31:03.019Z,86.15
2016-06-03T11:32:03.006Z,86.05
2016-06-03T11:33:02.992Z,84.83
2016-06-03T11:34:02.980Z,85.31
2016-06-03T11:35:02.983Z,85.51
2016-06-03T11:36:02.970Z,84.93
2016-06-03T11:37:02.957Z,85.61
2016-06-03T11:38:02.959Z,85.9
2016-06-03T11:39:02.947Z,84.64
2016-06-03T11:40:02.934Z,83.42
2016-06-03T11:41:02.921Z,84.06
2016-06-03T11:42:02.924Z,84.55
2016-06-03T11:43:02.911Z,85.31
2016-06-03T11:44:02.897Z,85.13
2016-06-03T11:45:02.885Z,85.46
2016-06-03T11:46:02.887Z,85.27
2016-06-03T11:47:02.874Z,85.07
2016-06-03T11:48:02.861Z,85.55
2016-06-03T11:49:02.864Z,85.07
2016-06-03T11:50:02.852Z,85.07
2016-06-03T11:51:02.838Z,83.91
2016-06-03T11:52:02.826Z,83.86
2016-06-03T11:53:02.812Z,84.06
2016-06-03T11:54:02.815Z,84.69
2016-06-03T11:55:03.708Z,84.01
2016-06-03T11:56:02.789Z,84.69
2016-06-03T11:57:02.776Z,84.6
2016-06-03T11:58:02.763Z,83.92
2016-06-03T11:59:02.766Z,84.56
2016-06-03T12:00:02.753Z,84.75
2016-06-03T12:01:02.740Z,85.52
2016-06-03T12:02:02.728Z,85.42
2016-06-03T12:03:02.714Z,86.01
2016-06-03T12:04:02.701Z,84.94
2016-06-03T12:05:02.703Z,84.75
2016-06-03T12:06:02.692Z,85.48
2016-06-03T12:07:02.678Z,84.9
2016-06-03T12:08:02.664Z,85.77
2016-06-03T12:09:02.652Z,86.06
2016-06-03T12:10:03.374Z,86.65
2016-06-03T12:11:03.422Z,86.83
2016-06-03T12:12:02.630Z,86.88
2016-06-03T12:13:02.616Z,87.27
2016-06-03T12:14:02.603Z,87.17
2016-06-03T12:15:02.591Z,86.73
2016-06-03T12:16:02.577Z,85.66
2016-06-03T12:17:02.564Z,85.61
2016-06-03T12:18:02.566Z,85.55
2016-06-03T12:19:02.555Z,84.72
2016-06-03T12:20:02.541Z,83.95
2016-06-03T12:21:02.544Z,83.65
2016-06-03T12:22:02.546Z,82.98
2016-06-03T12:23:02.580Z,81.91
2016-06-03T12:24:02.521Z,81.82
2016-06-03T12:25:03.055Z,82.01
2016-06-03T12:26:02.682Z,80.5
2016-06-03T12:27:02.498Z,77.55
2016-06-03T12:28:02.500Z,77.65
2016-06-03T12:29:02.487Z,79.39
2016-06-03T12:30:02.490Z,80.55
2016-06-03T12:31:02.477Z,81.76
2016-06-03T12:32:02.464Z,77.88
2016-06-03T12:33:02.467Z,79.63
2016-06-03T12:34:02.454Z,79.43
2016-06-03T12:35:02.457Z,79.3
2016-06-03T12:36:02.444Z,79.39
2016-06-03T12:37:02.447Z,79
2016-06-03T12:38:02.433Z,79.53
2016-06-03T12:39:02.420Z,79.37
2016-06-03T12:40:03.283Z,79.28
2016-06-03T12:41:02.425Z,79.71
2016-06-03T12:42:02.413Z,79.41
2016-06-03T12:43:02.416Z,78.09
2016-06-03T12:44:02.403Z,77.31
2016-06-03T12:45:02.405Z,78.42
2016-06-03T12:46:02.392Z,78.23
2016-06-03T12:47:02.395Z,77.25
2016-06-03T12:48:02.382Z,76.03
2016-06-03T12:49:02.385Z,75.15
2016-06-03T12:50:02.388Z,75.41
2016-06-03T12:51:02.374Z,73.75
2016-06-03T12:52:02.377Z,75.12
2016-06-03T12:53:02.380Z,75.8
2016-06-03T12:54:02.367Z,75.41
2016-06-03T12:55:02.370Z,75.84